Time;durP1;ratioP1;P1;durP2;ratioP2;P2;SDS_P1;SDS_P2;PMS_P1;PMS_P2;Temp;Humidity;BMP_temperature;BMP_pressure;BME280_temperature;BME280_humidity;BME280_pressure;Samples;Min_cycle;Max_cycle;Signal;HPM_P1;HPM_P2
2022/01/23 00:01:15;;;;;;;8.23;6.63;;;;;;;-143.84;62.48;45197.59;5091909;28;20783;-70
2022/01/23 00:03:46;;;;;;;14.90;6.80;;;;;;;-143.84;62.35;45201.41;5091863;28;20204;-70
2022/01/23 00:06:15;;;;;;;11.88;7.20;;;;;;;-143.84;62.29;45216.63;5091746;28;20255;-70
2022/01/23 00:08:43;;;;;;;12.32;6.47;;;;;;;-143.84;62.15;45191.88;5091668;28;20194;-70
2022/01/23 00:11:10;;;;;;;17.38;6.47;;;;;;;-143.84;62.02;45203.31;5091766;28;20194;-70
2022/01/23 00:17:16;;;;;;;13.30;8.20;;;;;;;-143.84;62.23;45176.66;5091377;28;20275;-70
2022/01/23 00:19:11;;;;;;;12.80;6.97;;;;;;;-143.84;61.36;45199.50;5091725;28;20201;-70
2022/01/23 00:21:41;;;;;;;9.82;6.90;;;;;;;-143.84;61.45;45209.03;5091594;28;20194;-71
2022/01/23 00:32:36;;;;;;;15.88;6.47;;;;;;;-143.84;60.56;45203.31;5009168;28;20860;-71
2022/01/23 00:35:04;;;;;;;9.63;7.40;;;;;;;-143.84;60.64;45188.06;5071534;28;20194;-71
2022/01/23 00:37:32;;;;;;;9.95;6.70;;;;;;;-143.84;60.59;45193.78;5091590;28;20190;-71
2022/01/23 00:40:00;;;;;;;10.73;6.45;;;;;;;-143.84;60.24;45218.53;5091115;28;20194;-71
2022/01/23 00:42:28;;;;;;;14.55;7.40;;;;;;;-143.84;60.23;45174.75;5090252;28;20199;-71
2022/01/23 00:45:05;;;;;;;13.43;7.45;;;;;;;-143.84;60.47;45216.63;5090432;28;20190;-71
2022/01/23 00:47:33;;;;;;;10.57;6.28;;;;;;;-143.84;60.28;45203.31;5090869;28;20279;-71
2022/01/23 00:50:00;;;;;;;8.23;6.03;;;;;;;-143.84;60.25;45220.44;5091107;28;20194;-71
2022/01/23 00:52:27;;;;;;;13.77;8.65;;;;;;;-143.84;60.25;45195.69;5090646;28;20276;-70
2022/01/23 00:54:57;;;;;;;14.52;7.07;;;;;;;-143.84;60.36;45218.53;5091090;28;20194;-70
2022/01/23 00:57:24;;;;;;;12.25;8.32;;;;;;;-143.84;60.30;45193.78;5091029;28;20724;-71
2022/01/23 00:59:51;;;;;;;11.40;7.07;;;;;;;-143.84;60.31;45186.16;5090886;28;20194;-70
2022/01/23 01:02:19;;;;;;;17.75;7.85;;;;;;;-143.84;60.42;45170.94;5091052;28;20255;-70
2022/01/23 01:04:46;;;;;;;11.90;7.00;;;;;;;-143.84;60.02;45197.59;5090848;28;20264;-70
2022/01/23 01:07:13;;;;;;;12.73;9.05;;;;;;;-143.84;59.55;45176.66;5091130;28;20256;-70
2022/01/23 01:09:47;;;;;;;13.65;7.18;;;;;;;-143.84;59.44;45214.72;5090683;28;20287;-71
2022/01/23 01:12:20;;;;;;;13.38;7.15;;;;;;;-143.84;59.23;45178.56;5089535;28;20221;-71
2022/01/23 01:15:22;;;;;;;13.50;8.02;;;;;;;-143.84;58.64;45170.94;5089747;28;20194;-71
2022/01/23 01:31:35;;;;;;;12.85;7.13;;;;;;;-143.84;58.72;45189.97;5130794;27;20280;-70
2022/01/23 01:34:07;;;;;;;14.18;7.90;;;;;;;-143.84;58.78;45193.78;5130607;27;20224;-71
2022/01/23 01:36:45;;;;;;;11.80;7.63;;;;;;;-143.84;59.02;45180.47;5131045;27;20204;-70
2022/01/23 01:39:13;;;;;;;13.25;7.82;;;;;;;-143.84;58.83;45169.03;5130718;27;20190;-71
2022/01/23 01:41:42;;;;;;;14.18;8.02;;;;;;;-143.84;58.69;45191.88;5130502;27;20196;-70
2022/01/23 01:44:11;;;;;;;12.13;8.43;;;;;;;-143.84;58.87;45169.03;5130131;27;20196;-71
2022/01/23 01:46:38;;;;;;;12.70;8.13;;;;;;;-143.84;58.74;45197.59;5129591;27;20687;-70
2022/01/23 01:49:05;;;;;;;7.78;6.75;;;;;;;-143.84;58.54;45233.78;5129997;27;20253;-71
2022/01/23 01:51:34;;;;;;;14.23;8.02;;;;;;;-143.84;58.87;45193.78;5129729;27;20564;-71
2022/01/23 01:54:09;;;;;;;11.52;6.70;;;;;;;-143.84;58.79;45212.84;5129718;27;20220;-71
2022/01/23 01:56:46;;;;;;;13.77;6.97;;;;;;;-143.84;58.77;45203.31;5130447;27;20224;-70
2022/01/23 01:59:24;;;;;;;18.60;7.13;;;;;;;-143.84;58.87;45231.88;5129924;27;20651;-70
2022/01/23 02:10:06;;;;;;;12.38;7.95;;;;;;;-143.84;60.01;45197.59;5130695;27;20231;-70
2022/01/23 02:18:18;;;;;;;10.07;7.35;;;;;;;-143.84;61.93;45216.63;5130562;27;20196;-71
2022/01/23 02:23:57;;;;;;;11.05;7.18;;;;;;;-143.84;63.83;45199.50;5130775;27;20963;-70
2022/01/23 02:51:13;;;;;;;15.25;8.02;;;;;;;-143.84;68.28;45188.06;5130386;28;20696;-70
2022/01/23 02:54:05;;;;;;;13.13;7.53;;;;;;;-143.84;68.66;45207.13;5130120;28;20223;-70
2022/01/23 02:56:37;;;;;;;10.95;7.25;;;;;;;-143.84;68.41;45186.16;5129722;28;20585;-70
2022/01/23 02:59:13;;;;;;;15.75;7.88;;;;;;;-143.84;68.13;45189.97;5130022;28;20300;-70
2022/01/23 03:01:59;;;;;;;12.13;8.63;;;;;;;-143.84;68.58;45209.03;5130162;28;20203;-70
2022/01/23 03:04:26;;;;;;;12.43;8.32;;;;;;;-143.84;68.15;45193.78;5133820;27;20204;-70
2022/01/23 03:07:08;;;;;;;14.35;8.27;;;;;;;-143.84;68.38;45197.59;5134325;27;20196;-70
2022/01/23 03:09:58;;;;;;;15.43;8.85;;;;;;;-143.84;68.30;45203.31;5134111;27;20264;-70
2022/01/23 03:15:13;;;;;;;13.70;8.40;;;;;;;-143.84;69.47;45216.63;5132979;27;20253;-70
2022/01/23 03:26:14;;;;;;;14.80;8.00;;;;;;;-143.84;72.28;45205.22;5133483;27;20323;-70
2022/01/23 03:29:02;;;;;;;15.20;8.82;;;;;;;-143.84;73.13;45199.50;5133450;27;20555;-73
2022/01/23 03:31:33;;;;;;;13.07;9.05;;;;;;;-143.84;73.72;45195.69;5133214;27;20207;-73
2022/01/23 03:34:01;;;;;;;18.00;9.43;;;;;;;-143.84;74.11;45205.22;5133011;27;20228;-73
2022/01/23 03:36:28;;;;;;;10.43;7.75;;;;;;;-143.84;74.43;45207.13;5133286;27;20276;-73
2022/01/23 03:38:55;;;;;;;15.55;8.55;;;;;;;-143.84;74.44;45203.31;5133046;27;20246;-73
2022/01/23 03:41:24;;;;;;;12.50;7.15;;;;;;;-143.84;74.66;45205.22;5133065;27;20188;-73
2022/01/23 03:43:51;;;;;;;12.82;8.52;;;;;;;-143.84;74.64;45216.63;5132773;27;20192;-73
2022/01/23 03:46:46;;;;;;;13.25;8.32;;;;;;;-143.84;74.67;45193.78;5114458;27;20520;-73
2022/01/23 03:49:33;;;;;;;19.38;9.00;;;;;;;-143.84;74.76;45205.22;5132826;27;20195;-73
2022/01/23 03:52:06;;;;;;;13.70;8.27;;;;;;;-143.84;75.05;45210.94;5132666;27;20192;-73
2022/01/23 03:54:34;;;;;;;12.30;7.93;;;;;;;-143.84;74.86;45193.78;5132717;27;21070;-73
2022/01/23 03:57:04;;;;;;;18.83;7.75;;;;;;;-143.84;74.82;45218.53;5132136;27;20192;-73
2022/01/23 03:59:32;;;;;;;15.23;8.60;;;;;;;-143.84;74.89;45197.59;5132382;27;20253;-73
2022/01/23 04:01:59;;;;;;;13.85;8.50;;;;;;;-143.84;74.83;45203.31;5132504;27;20196;-73
2022/01/23 04:04:39;;;;;;;12.82;9.00;;;;;;;-143.84;75.03;45189.97;5132475;27;20204;-73
2022/01/23 04:07:08;;;;;;;9.95;6.93;;;;;;;-143.84;75.16;45197.59;5132565;27;20196;-73
2022/01/23 04:09:36;;;;;;;13.88;7.90;;;;;;;-143.84;75.31;45189.97;5132872;27;20262;-73
2022/01/23 04:12:08;;;;;;;14.65;7.75;;;;;;;-143.84;75.40;45195.69;5132491;27;20281;-73
2022/01/23 04:14:39;;;;;;;11.63;7.18;;;;;;;-143.84;75.61;45184.25;5131585;27;20248;-73
2022/01/23 04:17:39;;;;;;;12.50;7.75;;;;;;;-143.84;76.00;45191.88;5131612;27;20606;-73
2022/01/23 04:20:19;;;;;;;11.10;6.80;;;;;;;-143.84;76.42;45222.34;5131556;27;20203;-73
2022/01/23 04:33:51;;;;;;;11.45;7.35;;;;;;;-143.84;77.56;45172.84;5132258;27;20708;-73
2022/01/23 05:01:22;;;;;;;9.77;6.93;;;;;;;-143.84;78.12;45205.22;5132350;27;20204;-73
2022/01/23 05:04:09;;;;;;;14.55;7.30;;;;;;;-143.84;78.28;45176.66;5131210;27;20310;-73
2022/01/23 05:06:44;;;;;;;11.73;7.63;;;;;;;-143.84;78.17;45199.50;5131983;27;20192;-72
2022/01/23 05:09:12;;;;;;;14.93;7.50;;;;;;;-143.84;78.01;45180.47;5131247;27;20227;-73
2022/01/23 05:11:47;;;;;;;10.55;7.88;;;;;;;-143.84;77.74;45167.13;5130852;27;20196;-72
2022/01/23 05:14:14;;;;;;;13.90;8.80;;;;;;;-143.84;77.66;45165.22;5131554;27;20219;-72
2022/01/23 05:16:42;;;;;;;12.32;8.50;;;;;;;-143.84;78.14;45201.41;5131242;27;20705;-72
2022/01/23 05:19:10;;;;;;;15.27;8.90;;;;;;;-143.84;78.11;45209.03;5131531;27;20200;-72
2022/01/23 05:24:23;;;;;;;9.60;7.43;;;;;;;-143.84;78.02;45172.84;5108963;27;20242;-73
2022/01/23 05:26:50;;;;;;;11.48;7.00;;;;;;;-143.84;77.69;45199.50;5130898;27;20296;-73
2022/01/23 05:29:17;;;;;;;12.73;8.27;;;;;;;-143.84;77.42;45212.84;5131768;27;20319;-72
2022/01/23 05:31:48;;;;;;;14.77;7.60;;;;;;;-143.84;77.81;45180.47;5130600;27;20197;-73
2022/01/23 05:34:15;;;;;;;13.75;7.55;;;;;;;-143.84;77.66;45193.78;5131402;27;20277;-72
2022/01/23 05:36:43;;;;;;;14.40;7.32;;;;;;;-143.84;78.05;45176.66;5131676;27;20200;-72
2022/01/23 05:39:10;;;;;;;13.02;8.45;;;;;;;-143.84;78.09;45165.22;5131783;27;20303;-72
2022/01/23 05:41:37;;;;;;;9.55;7.65;;;;;;;-143.84;78.14;45184.25;5132131;27;20201;-72
2022/01/23 05:44:05;;;;;;;14.43;8.07;;;;;;;-143.84;77.72;45207.13;5131618;27;20197;-72
2022/01/23 05:46:32;;;;;;;15.25;7.60;;;;;;;-143.84;77.80;45247.09;5130963;27;20196;-72
2022/01/23 05:49:01;;;;;;;19.27;9.52;;;;;;;-143.84;77.85;45201.41;5112741;27;20371;-72
2022/01/23 05:51:28;;;;;;;14.20;7.10;;;;;;;-143.84;77.50;45201.41;5129609;27;20234;-71
2022/01/23 05:53:55;;;;;;;48.28;17.83;;;;;;;-143.84;77.66;45186.16;5110919;27;20216;-72
2022/01/23 05:56:22;;;;;;;70.72;21.52;;;;;;;-143.84;77.40;45224.25;5129632;27;20192;-72
2022/01/23 05:58:50;;;;;;;86.05;26.35;;;;;;;-143.84;77.39;45216.63;5129750;27;20218;-72
2022/01/23 06:01:17;;;;;;;39.20;14.75;;;;;;;-143.84;77.09;45205.22;5129719;27;20745;-72
2022/01/23 06:03:44;;;;;;;31.42;14.38;;;;;;;-143.84;76.89;45195.69;5130561;27;20189;-72
2022/01/23 06:06:13;;;;;;;25.73;8.80;;;;;;;-143.84;76.79;45174.75;5129203;27;20720;-73
2022/01/23 06:08:40;;;;;;;11.25;7.97;;;;;;;-143.84;76.81;45201.41;5127143;27;20670;-72
2022/01/23 06:11:07;;;;;;;18.58;8.98;;;;;;;-143.84;77.30;45184.25;5130125;27;20196;-79
2022/01/23 06:13:35;;;;;;;14.70;8.00;;;;;;;-143.84;77.13;45193.78;5130873;27;20228;-72
2022/01/23 06:16:02;;;;;;;25.33;11.05;;;;;;;-143.84;76.34;45216.63;5130644;27;20215;-71
2022/01/23 06:18:30;;;;;;;18.30;8.70;;;;;;;-143.84;75.98;45209.03;5131370;27;20677;-72
2022/01/23 06:20:57;;;;;;;16.23;8.95;;;;;;;-143.84;75.74;45218.53;5131441;27;20204;-72
2022/01/23 06:23:29;;;;;;;19.77;8.75;;;;;;;-143.84;75.61;45184.25;5130273;27;20212;-72
2022/01/23 06:25:57;;;;;;;20.30;8.82;;;;;;;-143.84;75.20;45191.88;5129899;28;20748;-71
2022/01/23 06:28:37;;;;;;;11.75;7.90;;;;;;;-143.84;75.11;45201.41;5130592;27;20212;-72
2022/01/23 06:31:05;;;;;;;9.15;6.90;;;;;;;-143.84;74.56;45207.13;5129364;27;20238;-73
2022/01/23 06:33:32;;;;;;;12.85;7.35;;;;;;;-143.84;73.76;45193.78;5130286;27;20208;-72
2022/01/23 06:35:59;;;;;;;15.50;7.88;;;;;;;-143.84;73.13;45180.47;5130855;28;20249;-71
2022/01/23 06:38:27;;;;;;;9.52;6.85;;;;;;;-143.84;72.91;45172.84;5130743;27;20193;-71
2022/01/23 06:40:55;;;;;;;10.45;7.25;;;;;;;-143.84;72.21;45210.94;5130094;28;20192;-72
2022/01/23 06:43:22;;;;;;;10.60;7.15;;;;;;;-143.84;71.69;45212.84;5129904;28;20224;-72
2022/01/23 06:45:49;;;;;;;11.85;7.95;;;;;;;-143.84;70.86;45178.56;5130175;28;20625;-70
2022/01/23 06:48:17;;;;;;;10.70;7.47;;;;;;;-143.84;69.83;45195.69;5129406;28;20208;-72
2022/01/23 06:50:45;;;;;;;13.18;7.82;;;;;;;-143.84;68.83;45203.31;5129247;28;20680;-72
2022/01/23 06:53:12;;;;;;;9.90;7.90;;;;;;;-143.84;68.95;45188.06;5130220;28;20204;-73
2022/01/23 06:55:40;;;;;;;11.65;7.40;;;;;;;-143.84;67.69;45189.97;5129878;28;20228;-73
2022/01/23 06:58:08;;;;;;;9.32;7.43;;;;;;;-143.84;67.21;45163.31;5130716;28;20201;-71
2022/01/23 07:00:35;;;;;;;11.20;8.27;;;;;;;-143.84;66.64;45169.03;5129521;28;20205;-71
2022/01/23 07:03:03;;;;;;;9.38;6.65;;;;;;;-143.84;65.06;45176.66;5130271;28;20456;-70
2022/01/23 07:05:30;;;;;;;14.27;7.47;;;;;;;-143.84;64.70;45159.50;5126387;28;20212;-72
2022/01/23 07:07:57;;;;;;;7.50;6.60;;;;;;;-143.84;63.54;45165.22;5129908;28;20687;-73
2022/01/23 07:10:25;;;;;;;15.10;7.20;;;;;;;-143.84;62.88;45169.03;5130523;28;20445;-71
2022/01/23 07:12:53;;;;;;;13.30;6.95;;;;;;;-143.84;61.91;45189.97;5131547;28;20458;-71
2022/01/23 07:15:21;;;;;;;13.45;7.95;;;;;;;-143.84;60.95;45140.47;5130237;28;20721;-71
2022/01/23 07:17:48;;;;;;;13.73;7.23;;;;;;;-143.84;60.27;45191.88;5130946;28;20576;-73
2022/01/23 07:20:15;;;;;;;9.30;7.40;;;;;;;-143.84;60.32;45163.31;5131559;28;20890;-72
2022/01/23 07:22:42;;;;;;;9.70;6.63;;;;;;;-143.84;58.82;45161.41;5131345;28;20434;-71
2022/01/23 07:25:10;;;;;;;12.33;7.50;;;;;;;-143.84;57.95;45148.09;5130382;28;20500;-72
2022/01/23 07:27:42;;;;;;;8.37;6.40;;;;;;;-143.84;56.82;45165.22;5129869;28;20445;-72
2022/01/23 07:30:24;;;;;;;7.70;6.90;;;;;;;-143.84;56.14;45176.66;5129823;28;20443;-73
2022/01/23 07:32:51;;;;;;;9.30;6.67;;;;;;;-143.84;54.09;45153.81;5129591;28;20498;-72
2022/01/23 07:35:19;;;;;;;8.90;6.30;;;;;;;-143.84;52.50;45176.66;5128520;28;20474;-72
2022/01/23 07:37:46;;;;;;;9.80;6.37;;;;;;;-143.84;53.15;45169.03;5128363;28;20951;-72
2022/01/23 07:40:14;;;;;;;7.13;6.40;;;;;;;-143.84;51.45;45151.91;5129598;28;20821;-73
2022/01/23 07:42:41;;;;;;;7.37;6.30;;;;;;;-143.84;51.66;45188.06;5130965;28;20431;-72
2022/01/23 07:45:10;;;;;;;7.83;6.07;;;;;;;-143.84;51.02;45170.94;5130494;28;20441;-72
2022/01/23 07:47:40;;;;;;;11.17;6.70;;;;;;;-143.84;51.76;45189.97;5130104;28;21251;-73
2022/01/23 07:50:09;;;;;;;8.10;5.90;;;;;;;-143.84;51.12;45155.69;5132319;27;20449;-73
2022/01/23 07:52:38;;;;;;;16.17;6.40;;;;;;;-143.84;51.53;45170.94;5133186;27;20923;-73
2022/01/23 07:55:07;;;;;;;11.83;7.30;;;;;;;-143.84;50.48;45148.09;5134516;27;20532;-73
2022/01/23 07:57:34;;;;;;;8.37;5.90;;;;;;;-143.84;49.71;45167.13;5116640;27;20430;-72
2022/01/23 08:00:01;;;;;;;7.07;5.50;;;;;;;-143.84;49.34;45163.31;5134468;27;20443;-73
2022/01/23 08:02:30;;;;;;;10.27;7.30;;;;;;;-143.84;48.21;45172.84;5135380;27;20784;-72
2022/01/23 08:04:59;;;;;;;12.70;7.57;;;;;;;-143.84;47.76;45153.81;5135002;27;20499;-74
2022/01/23 08:07:31;;;;;;;19.30;9.60;;;;;;;-143.84;46.81;45140.47;5135159;27;20471;-74
2022/01/23 08:10:00;;;;;;;13.57;8.07;;;;;;;-143.84;46.46;45157.59;5135347;27;20475;-74
2022/01/23 08:12:28;;;;;;;13.27;8.30;;;;;;;-143.84;45.80;45134.75;5135073;27;20934;-72
2022/01/23 08:14:56;;;;;;;7.60;5.93;;;;;;;-143.84;44.87;45146.19;5133874;27;20474;-74
2022/01/23 08:17:25;;;;;;;8.03;5.80;;;;;;;-143.84;45.27;45153.81;5133553;27;20483;-74
2022/01/23 08:19:53;;;;;;;12.80;6.20;;;;;;;-143.84;45.06;45140.47;5134492;27;20985;-73
2022/01/23 08:22:24;;;;;;;6.63;5.53;;;;;;;-143.84;44.94;45132.84;5134618;27;20533;-74
2022/01/23 08:24:54;;;;;;;6.60;4.87;;;;;;;-143.84;45.21;45144.28;5128460;27;20532;-73
2022/01/23 08:27:21;;;;;;;4.77;4.20;;;;;;;-143.84;44.18;45138.56;5112674;28;20440;-72
2022/01/23 08:29:49;;;;;;;10.13;5.10;;;;;;;-143.84;43.87;45151.91;5111984;28;20435;-73
2022/01/23 08:32:16;;;;;;;7.00;4.73;;;;;;;-143.84;44.07;45117.63;5113318;28;20439;-72
2022/01/23 08:34:44;;;;;;;5.90;4.20;;;;;;;-143.84;43.63;45151.91;5113146;28;20491;-73
2022/01/23 08:37:11;;;;;;;7.07;5.50;;;;;;;-143.84;42.96;45130.94;5113718;28;20791;-72
2022/01/23 08:39:41;;;;;;;6.30;5.57;;;;;;;-143.84;43.71;45123.34;5113260;28;20953;-72
2022/01/23 08:42:10;;;;;;;7.83;5.37;;;;;;;-143.84;43.93;45148.09;5112192;28;20838;-72
2022/01/23 08:44:38;;;;;;;8.53;5.63;;;;;;;-143.84;44.12;45153.81;5112079;28;20440;-71
2022/01/23 08:47:07;;;;;;;5.90;5.17;;;;;;;-143.84;44.12;45138.56;5112763;27;20446;-74
2022/01/23 08:49:36;;;;;;;8.60;5.80;;;;;;;-143.84;43.67;45146.19;5113183;28;20513;-76
2022/01/23 08:52:04;;;;;;;9.63;6.90;;;;;;;-143.84;43.79;45146.19;5113651;28;20485;-75
2022/01/23 08:54:31;;;;;;;15.20;9.33;;;;;;;-143.84;43.61;45130.94;5112857;28;20471;-76
2022/01/23 08:57:00;;;;;;;10.83;5.90;;;;;;;-143.84;42.77;45134.75;5110696;28;20454;-72
2022/01/23 08:59:27;;;;;;;6.23;5.63;;;;;;;-143.84;42.54;45138.56;5111250;28;20869;-73
2022/01/23 09:01:54;;;;;;;8.20;6.23;;;;;;;-143.84;42.73;45148.09;5112539;27;20443;-72
2022/01/23 09:04:21;;;;;;;9.97;6.63;;;;;;;-143.84;42.80;45138.56;5111265;28;20500;-71
2022/01/23 09:06:49;;;;;;;7.30;6.60;;;;;;;-143.84;42.02;45121.44;5111887;28;20443;-74
2022/01/23 09:09:19;;;;;;;9.13;6.50;;;;;;;-143.84;42.11;45140.47;5110592;28;20461;-75
2022/01/23 09:11:57;;;;;;;9.17;6.87;;;;;;;-143.84;42.36;45134.75;5110585;28;20457;-74
2022/01/23 09:14:26;;;;;;;10.50;5.10;;;;;;;-143.84;42.50;45113.81;5110574;28;20924;-71
2022/01/23 09:16:55;;;;;;;6.00;4.43;;;;;;;-143.84;42.79;45151.91;5108245;28;20446;-71
2022/01/23 09:19:24;;;;;;;7.00;5.67;;;;;;;-143.84;43.23;45119.53;5111539;28;20527;-71
2022/01/23 09:21:52;;;;;;;5.47;4.97;;;;;;;-143.84;44.66;45138.56;5111215;28;20445;-71
2022/01/23 09:24:21;;;;;;;6.10;5.50;;;;;;;-143.84;45.24;45127.13;5112245;27;20451;-71
2022/01/23 09:26:52;;;;;;;5.43;4.73;;;;;;;-143.84;45.39;45127.13;5132708;27;20447;-71
2022/01/23 09:29:28;;;;;;;5.10;4.60;;;;;;;-143.84;45.55;45132.84;5131431;27;20453;-71
2022/01/23 09:31:57;;;;;;;6.93;3.80;;;;;;;-143.84;45.17;45138.56;5132192;27;20483;-72
2022/01/23 09:34:27;;;;;;;4.73;3.90;;;;;;;-143.84;45.98;45153.81;5113688;27;20450;-71
2022/01/23 09:36:56;;;;;;;4.90;4.50;;;;;;;-143.84;47.02;45150.00;5132601;27;20465;-72
2022/01/23 09:39:24;;;;;;;5.80;4.50;;;;;;;-143.84;46.99;45153.81;5131786;27;20454;-71
2022/01/23 09:41:57;;;;;;;8.67;4.53;;;;;;;-143.84;47.25;45130.94;5131928;27;20450;-71
2022/01/23 09:44:27;;;;;;;6.27;4.20;;;;;;;-143.84;46.63;45148.09;5130238;27;20450;-73
2022/01/23 09:46:58;;;;;;;7.53;4.10;;;;;;;-143.84;48.03;45150.00;5130477;27;20449;-72
2022/01/23 09:49:30;;;;;;;4.43;4.03;;;;;;;-143.84;47.73;45165.22;5131515;27;20453;-73
2022/01/23 09:52:01;;;;;;;7.90;4.80;;;;;;;-143.84;47.53;45136.66;5131199;27;20931;-74
2022/01/23 09:54:31;;;;;;;6.47;3.70;;;;;;;-143.84;47.61;45140.47;5131493;27;20950;-73
2022/01/23 09:57:01;;;;;;;4.47;3.63;;;;;;;-143.84;47.12;45144.28;5131645;27;20451;-74
2022/01/23 09:59:29;;;;;;;4.13;3.83;;;;;;;-143.84;47.54;45140.47;5129306;27;20950;-78
2022/01/23 10:01:58;;;;;;;5.03;4.40;;;;;;;-143.84;47.28;45142.38;5127435;27;20475;-72
2022/01/23 10:04:25;;;;;;;6.47;4.70;;;;;;;-143.84;45.90;45115.72;5127607;27;20434;-72
2022/01/23 10:06:53;;;;;;;5.43;4.50;;;;;;;-143.84;45.81;45123.34;5130142;27;20441;-72
2022/01/23 10:09:22;;;;;;;4.43;4.00;;;;;;;-143.84;44.92;45151.91;5130125;27;20450;-72
2022/01/23 10:11:50;;;;;;;7.00;5.27;;;;;;;-143.84;45.51;45127.13;5129214;27;20451;-70
2022/01/23 10:14:19;;;;;;;7.80;4.90;;;;;;;-143.84;44.78;45136.66;5126993;27;20446;-70
2022/01/23 10:16:46;;;;;;;5.30;4.30;;;;;;;-143.84;44.92;45148.09;5129395;27;20465;-70
2022/01/23 10:19:15;;;;;;;5.47;4.33;;;;;;;-143.84;44.55;45153.81;5129414;27;20455;-70
2022/01/23 10:21:44;;;;;;;4.73;4.20;;;;;;;-143.84;44.33;45142.38;5128851;27;20514;-71
2022/01/23 10:24:12;;;;;;;4.93;3.77;;;;;;;-143.84;44.65;45144.28;5128375;27;20461;-72
2022/01/23 10:26:47;;;;;;;5.53;4.50;;;;;;;-143.84;45.10;45129.03;5128454;27;20442;-72
2022/01/23 10:29:16;;;;;;;4.03;3.63;;;;;;;-143.84;43.56;45132.84;5127048;27;20464;-71
2022/01/23 10:32:12;;;;;;;8.87;5.40;;;;;;;-143.84;43.87;45142.38;5128365;27;20450;-72
2022/01/23 10:34:52;;;;;;;4.90;3.83;;;;;;;-143.84;41.74;45146.19;5131564;27;20456;-72
2022/01/23 10:37:35;;;;;;;6.90;4.20;;;;;;;-143.84;43.25;45142.38;5130897;28;20438;-72
2022/01/23 10:40:10;;;;;;;4.60;3.80;;;;;;;-143.84;43.50;45144.28;5131166;28;20446;-72
2022/01/23 10:48:36;;;;;;;10.17;4.80;;;;;;;-143.84;45.87;45146.19;5129186;28;20478;-71
2022/01/23 10:51:36;;;;;;;8.40;6.00;;;;;;;-143.84;45.55;45150.00;5128234;28;20811;-74
2022/01/23 10:54:13;;;;;;;5.60;4.93;;;;;;;-143.84;44.70;45140.47;5126766;28;20457;-70
2022/01/23 10:57:00;;;;;;;13.40;4.33;;;;;;;-143.84;44.62;45130.94;5131277;28;20472;-72
2022/01/23 10:59:40;;;;;;;4.87;4.37;;;;;;;-143.84;43.53;45119.53;5130693;28;20459;-72
2022/01/23 11:02:09;;;;;;;5.07;4.30;;;;;;;-143.84;42.05;45138.56;5129066;28;20522;-73
2022/01/23 11:04:50;;;;;;;6.47;4.80;;;;;;;-143.84;41.79;45106.19;5127037;28;20454;-72
2022/01/23 11:07:19;;;;;;;4.60;4.20;;;;;;;-143.84;40.16;45146.19;5129200;28;20446;-71
2022/01/23 11:09:46;;;;;;;6.73;4.30;;;;;;;-143.84;39.46;45142.38;5128046;28;20961;-73
2022/01/23 11:12:31;;;;;;;11.20;4.83;;;;;;;-143.84;40.39;45083.34;5127209;28;20446;-73
2022/01/23 11:17:50;;;;;;;4.43;3.87;;;;;;;-143.84;41.03;45119.53;5126712;28;20440;-73
2022/01/23 11:20:34;;;;;;;4.30;4.00;;;;;;;-143.84;41.41;45140.47;5127223;28;20978;-73
2022/01/23 11:23:11;;;;;;;4.73;4.37;;;;;;;-143.84;41.03;45144.28;5128367;28;20783;-73
2022/01/23 11:25:39;;;;;;;5.27;4.10;;;;;;;-143.84;41.27;45132.84;5130097;27;20497;-73
2022/01/23 11:28:06;;;;;;;6.50;4.17;;;;;;;-143.84;40.58;45134.75;5131558;27;20935;-73
2022/01/23 11:30:39;;;;;;;5.20;4.00;;;;;;;-143.84;40.46;45134.75;5131590;27;20438;-73
2022/01/23 11:33:09;;;;;;;10.10;3.70;;;;;;;-143.84;39.98;45153.81;5129590;27;20451;-73
2022/01/23 11:35:37;;;;;;;4.97;3.30;;;;;;;-143.84;40.75;45142.38;5132345;27;20528;-73
2022/01/23 11:38:11;;;;;;;4.83;3.83;;;;;;;-143.84;40.85;45146.19;5132277;27;20445;-73
2022/01/23 11:50:37;;;;;;;6.97;4.30;;;;;;;-143.84;40.86;45130.94;5130893;27;20446;-72
2022/01/23 11:55:01;;;;;;;3.77;3.40;;;;;;;-143.84;40.54;45117.63;5131014;27;20453;-73
2022/01/23 11:57:43;;;;;;;4.47;4.07;;;;;;;-143.84;40.68;45146.19;5131640;27;20438;-73
2022/01/23 12:00:20;;;;;;;4.43;3.97;;;;;;;-143.84;41.54;45144.28;5128586;27;20533;-72
2022/01/23 12:03:12;;;;;;;4.63;4.20;;;;;;;-143.84;40.86;45130.94;5129466;27;21184;-72
2022/01/23 12:05:43;;;;;;;5.17;4.43;;;;;;;-143.84;41.45;45148.09;5129157;27;20481;-74
2022/01/23 12:08:36;;;;;;;10.00;5.20;;;;;;;-143.84;41.68;45140.47;5131847;27;20453;-74
2022/01/23 12:17:21;;;;;;;5.70;4.87;;;;;;;-143.84;40.59;45106.19;5129960;27;20462;-72
2022/01/23 12:19:57;;;;;;;9.03;4.70;;;;;;;-143.84;40.32;45151.91;5128922;27;20948;-73
2022/01/23 12:22:45;;;;;;;7.67;4.87;;;;;;;-143.84;40.53;45127.13;5131792;27;20504;-74
2022/01/23 12:25:20;;;;;;;6.43;5.03;;;;;;;-143.84;40.71;45129.03;5130100;27;21025;-76
2022/01/23 12:28:10;;;;;;;5.27;4.63;;;;;;;-143.84;41.05;45134.75;5131694;27;20953;-75
2022/01/23 12:30:38;;;;;;;5.13;4.43;;;;;;;-143.84;41.09;45134.75;5130174;27;20511;-73
2022/01/23 12:33:15;;;;;;;5.73;5.10;;;;;;;-143.84;41.40;45130.94;5131854;27;20453;-71
2022/01/23 12:35:47;;;;;;;6.30;4.90;;;;;;;-143.84;40.92;45130.94;5130976;27;20477;-71
2022/01/23 12:38:16;;;;;;;5.97;4.37;;;;;;;-143.84;40.65;45148.09;5131999;27;20878;-72
2022/01/23 12:40:46;;;;;;;6.60;5.33;;;;;;;-143.84;40.86;45153.81;5131674;27;20438;-70
2022/01/23 12:43:18;;;;;;;9.40;6.73;;;;;;;-143.84;41.37;45125.22;5131103;27;20450;-70
2022/01/23 12:45:52;;;;;;;10.97;6.70;;;;;;;-143.84;40.91;45119.53;5131603;27;20474;-73
2022/01/23 12:48:40;;;;;;;16.43;9.60;;;;;;;-143.84;40.81;45144.28;5130053;27;20870;-75
2022/01/23 12:51:10;;;;;;;10.37;6.70;;;;;;;-143.84;40.96;45144.28;5130328;27;20468;-73
2022/01/23 12:53:39;;;;;;;7.67;5.43;;;;;;;-143.84;40.46;45146.19;5131373;27;20430;-73
2022/01/23 12:56:08;;;;;;;8.67;6.40;;;;;;;-143.84;40.51;45121.44;5131513;27;20478;-71
2022/01/23 12:58:37;;;;;;;4.97;4.47;;;;;;;-143.84;40.60;45167.13;5130774;27;20504;-70
2022/01/23 13:01:07;;;;;;;10.10;5.60;;;;;;;-143.84;41.42;45155.69;5131473;27;20451;-71
2022/01/23 13:03:36;;;;;;;11.00;6.20;;;;;;;-143.84;41.14;45146.19;5131874;27;20461;-74
2022/01/23 13:06:07;;;;;;;11.80;6.90;;;;;;;-143.84;40.80;45121.44;5130430;27;20456;-72
2022/01/23 13:08:45;;;;;;;4.03;3.67;;;;;;;-143.84;40.06;45146.19;5128509;27;20485;-71
2022/01/23 13:11:50;;;;;;;6.13;4.13;;;;;;;-143.84;39.92;45146.19;5130574;27;20527;-71
2022/01/23 13:14:11;;;;;;;5.93;3.90;;;;;;;-143.84;39.63;45151.91;5127913;27;20443;-71
2022/01/23 13:17:12;;;;;;;7.97;5.07;;;;;;;-143.84;40.37;45134.75;5131034;27;20553;-70
2022/01/23 13:20:00;;;;;;;8.13;5.50;;;;;;;-143.84;40.14;45140.47;5130411;27;20430;-73
2022/01/23 13:30:52;;;;;;;8.53;5.10;;;;;;;-143.84;40.85;45153.81;5110366;27;20580;-74
2022/01/23 13:33:22;;;;;;;5.00;4.50;;;;;;;-143.84;40.88;45142.38;5129830;27;20445;-74
2022/01/23 13:35:52;;;;;;;5.00;4.40;;;;;;;-143.84;40.94;45125.22;5129853;27;20517;-74
2022/01/23 13:38:20;;;;;;;5.17;4.10;;;;;;;-143.84;40.47;45142.38;5129861;27;20446;-73
2022/01/23 13:40:57;;;;;;;7.00;5.40;;;;;;;-143.84;40.90;45140.47;5130186;27;21000;-73
2022/01/23 13:51:56;;;;;;;7.80;5.80;;;;;;;-143.84;42.03;45132.84;5129459;27;20434;-74
2022/01/23 13:59:57;;;;;;;11.70;7.10;;;;;;;-143.84;42.66;45140.47;5128169;27;20810;-73
2022/01/23 14:02:28;;;;;;;6.83;5.60;;;;;;;-143.84;42.31;45174.75;5126283;27;20477;-73
2022/01/23 14:05:04;;;;;;;7.90;6.00;;;;;;;-143.84;42.10;45136.66;5125249;27;20461;-73
2022/01/23 14:07:32;;;;;;;10.00;6.60;;;;;;;-143.84;42.46;45150.00;5121464;27;20443;-73
2022/01/23 14:10:13;;;;;;;6.23;5.63;;;;;;;-143.84;41.91;45165.22;5121054;27;20455;-72
2022/01/23 14:12:40;;;;;;;6.03;5.40;;;;;;;-143.84;42.11;45144.28;5127215;27;20466;-73
2022/01/23 14:15:13;;;;;;;6.13;4.53;;;;;;;-143.84;42.18;45134.75;5129575;27;20446;-73
2022/01/23 14:17:42;;;;;;;7.40;5.90;;;;;;;-143.84;42.17;45176.66;5124721;27;20485;-72